Time;durP1;ratioP1;P1;durP2;ratioP2;P2;SDS_P1;SDS_P2;PMS_P1;PMS_P2;Temp;Humidity;BMP_temperature;BMP_pressure;BME280_temperature;BME280_humidity;BME280_pressure;Samples;Min_cycle;Max_cycle;Signal;HPM_P1;HPM_P2
2022/09/11 00:02:00;;;;;;;;;;;;;;;16.48;92.07;99904.16;5053362;28;20388;-87
2022/09/11 00:04:26;;;;;;;;;;;;;;;16.41;92.55;99904.56;5053576;28;19995;-87
2022/09/11 00:06:51;;;;;;;;;;;;;;;16.45;92.31;99900.06;5053769;28;20349;-87
2022/09/11 00:09:16;;;;;;;;;;;;;;;16.53;91.73;99889.50;5051830;28;19912;-87
2022/09/11 00:11:42;;;;;;;;;;;;;;;16.57;91.34;99896.03;5053775;28;20361;-86
2022/09/11 00:14:12;;;;;;;;;;;;;;;16.61;91.46;99904.50;5053511;28;19915;-87
2022/09/11 00:16:40;;;;;;;;;;;;;;;16.47;91.68;99896.22;5053643;28;19915;-87
2022/09/11 00:19:06;;;;;;;;;;;;;;;16.36;91.49;99899.13;5049264;28;19913;-87
2022/09/11 00:21:32;;;;;;;;;;;;;;;16.34;91.18;99899.44;5051086;28;19962;-87
2022/09/11 00:23:57;;;;;;;;;;;;;;;16.33;91.42;99905.25;5052875;28;19913;-86
2022/09/11 00:26:26;;;;;;;;;;;;;;;16.26;91.94;99904.78;5053129;28;19909;-87
2022/09/11 00:28:52;;;;;;;;;;;;;;;16.24;91.88;99904.28;5051230;28;20050;-87
2022/09/11 00:31:22;;;;;;;;;;;;;;;16.16;92.50;99908.53;5053688;28;19912;-88
2022/09/11 00:33:48;;;;;;;;;;;;;;;16.26;92.07;99904.78;5056350;28;19917;-87
2022/09/11 00:36:20;;;;;;;;;;;;;;;16.27;91.61;99903.69;5057247;28;19931;-87
2022/09/11 00:38:46;;;;;;;;;;;;;;;16.12;90.82;99902.00;5056094;28;19912;-87
2022/09/11 00:41:13;;;;;;;;;;;;;;;16.14;90.95;99911.59;5057282;28;19999;-87
2022/09/11 00:44:11;;;;;;;;;;;;;;;16.15;90.83;99910.44;5057691;28;19909;-87
2022/09/11 00:46:39;;;;;;;;;;;;;;;16.14;90.94;99917.09;5023642;28;19915;-88
2022/09/11 00:49:10;;;;;;;;;;;;;;;16.34;90.71;99915.94;5047239;28;19916;-87
2022/09/11 00:51:36;;;;;;;;;;;;;;;16.24;90.98;99912.53;5050295;28;19909;-86
2022/09/11 00:54:03;;;;;;;;;;;;;;;16.33;91.18;99916.25;5056925;28;19915;-86
2022/09/11 00:56:30;;;;;;;;;;;;;;;16.41;90.32;99915.56;5056882;28;19978;-87
2022/09/11 00:58:56;;;;;;;;;;;;;;;16.47;90.29;99919.03;5056474;28;19912;-87
2022/09/11 01:01:21;;;;;;;;;;;;;;;16.51;90.14;99914.56;5077055;28;20264;-87
2022/09/11 01:03:46;;;;;;;;;;;;;;;16.51;90.14;99919.25;5076432;28;19919;-86
2022/09/11 01:06:12;;;;;;;;;;;;;;;16.48;90.30;99925.34;5076751;28;19919;-87
2022/09/11 01:08:38;;;;;;;;;;;;;;;16.40;90.93;99919.41;5067527;28;19919;-87
2022/09/11 01:11:17;;;;;;;;;;;;;;;16.26;91.98;99924.06;5055553;28;19932;-87
2022/09/11 01:13:46;;;;;;;;;;;;;;;16.40;90.86;99930.44;5056772;28;19927;-87
2022/09/11 01:16:14;;;;;;;;;;;;;;;16.41;90.88;99934.00;5056927;28;19908;-87
2022/09/11 01:18:48;;;;;;;;;;;;;;;16.31;91.44;99935.00;5054282;28;19935;-87
2022/09/11 01:21:19;;;;;;;;;;;;;;;16.24;92.10;99940.84;5051489;28;19919;-86
2022/09/11 01:23:52;;;;;;;;;;;;;;;16.30;91.76;99941.59;5055294;28;19992;-86
2022/09/11 01:26:24;;;;;;;;;;;;;;;16.24;92.29;99953.78;5056688;28;19909;-86
2022/09/11 01:28:56;;;;;;;;;;;;;;;16.18;92.48;99945.63;5054390;28;20370;-87
2022/09/11 01:31:24;;;;;;;;;;;;;;;16.25;92.53;99944.44;5036631;28;19912;-86
2022/09/11 01:33:55;;;;;;;;;;;;;;;16.30;92.05;99945.16;5053663;28;20537;-86
2022/09/11 01:36:25;;;;;;;;;;;;;;;16.25;92.18;99955.44;5053846;28;19908;-87
2022/09/11 01:38:56;;;;;;;;;;;;;;;16.14;93.73;99952.84;5043273;28;19966;-86
2022/09/11 01:41:26;;;;;;;;;;;;;;;16.20;93.24;99965.41;5054991;28;19917;-85
2022/09/11 01:44:11;;;;;;;;;;;;;;;16.29;92.81;99960.03;5055554;28;19995;-86
2022/09/11 01:46:41;;;;;;;;;;;;;;;16.30;92.83;99963.59;5055263;28;19912;-87
2022/09/11 01:49:10;;;;;;;;;;;;;;;16.13;94.11;99961.38;5052437;28;20007;-86
2022/09/11 01:51:36;;;;;;;;;;;;;;;16.11;94.47;99967.16;5056708;28;19916;-86
2022/09/11 01:54:03;;;;;;;;;;;;;;;15.92;95.78;99973.47;5052700;28;19920;-86
2022/09/11 01:56:34;;;;;;;;;;;;;;;15.99;95.48;99976.66;5054678;28;19908;-86
2022/09/11 01:59:02;;;;;;;;;;;;;;;16.01;95.60;99967.31;5055969;28;19963;-87
2022/09/11 02:01:29;;;;;;;;;;;;;;;16.16;94.75;99967.09;5055941;28;19916;-86
2022/09/11 02:04:04;;;;;;;;;;;;;;;16.18;94.56;99975.88;5054832;28;19908;-87
2022/09/11 02:06:33;;;;;;;;;;;;;;;16.18;94.63;99972.31;5056245;28;19908;-85
2022/09/11 02:09:10;;;;;;;;;;;;;;;16.07;95.14;99979.88;5055529;28;19999;-86
2022/09/11 02:11:39;;;;;;;;;;;;;;;16.19;94.29;99985.75;5041111;28;20269;-87
2022/09/11 02:14:09;;;;;;;;;;;;;;;16.24;94.32;99975.78;5055754;28;20284;-85
2022/09/11 02:16:45;;;;;;;;;;;;;;;16.07;94.74;99977.13;5055566;28;19954;-87
2022/09/11 02:19:12;;;;;;;;;;;;;;;16.21;94.48;99972.53;5050235;28;19913;-87
2022/09/11 02:21:38;;;;;;;;;;;;;;;16.13;94.80;99975.13;5056076;28;20026;-87
2022/09/11 02:24:03;;;;;;;;;;;;;;;15.99;95.71;99982.16;5056110;28;19940;-87
2022/09/11 02:26:30;;;;;;;;;;;;;;;15.98;95.96;99985.19;5054777;28;19908;-85
2022/09/11 02:28:56;;;;;;;;;;;;;;;16.00;95.83;99982.97;5049762;28;19916;-87
2022/09/11 02:31:21;;;;;;;;;;;;;;;16.08;95.37;99989.78;5035756;28;19913;-87
2022/09/11 02:33:47;;;;;;;;;;;;;;;15.95;96.04;99981.09;5035905;28;20311;-87
2022/09/11 02:36:25;;;;;;;;;;;;;;;15.83;96.82;99994.47;5035379;28;19919;-85
2022/09/11 02:39:05;;;;;;;;;;;;;;;15.96;96.74;99985.50;5035060;28;19913;-86
2022/09/11 02:41:40;;;;;;;;;;;;;;;15.94;96.14;99984.97;5041621;28;19909;-86
2022/09/11 02:44:05;;;;;;;;;;;;;;;16.11;95.66;99983.66;5054829;28;20320;-86
2022/09/11 02:46:31;;;;;;;;;;;;;;;16.21;94.79;99978.03;5055110;28;19917;-87
2022/09/11 02:48:57;;;;;;;;;;;;;;;16.30;93.81;99989.19;5055000;28;19917;-86
2022/09/11 02:51:22;;;;;;;;;;;;;;;16.28;93.81;99982.34;5055126;28;19966;-86
2022/09/11 02:54:07;;;;;;;;;;;;;;;16.20;94.01;99981.91;5054722;28;19909;-86
2022/09/11 02:56:42;;;;;;;;;;;;;;;16.26;93.95;99990.06;5054426;28;20309;-86
2022/09/11 02:59:16;;;;;;;;;;;;;;;16.29;93.69;99989.47;5055009;28;19919;-86
2022/09/11 03:01:50;;;;;;;;;;;;;;;16.16;94.71;99991.84;5055126;28;19924;-86
2022/09/11 03:04:17;;;;;;;;;;;;;;;16.21;94.46;99988.22;5054592;28;19909;-85
2022/09/11 03:06:42;;;;;;;;;;;;;;;16.27;94.31;99997.22;5054840;28;20584;-86
2022/09/11 03:09:08;;;;;;;;;;;;;;;16.34;93.80;99986.66;5054573;28;20015;-86
2022/09/11 03:11:34;;;;;;;;;;;;;;;16.33;93.69;99988.56;5054849;28;20359;-86
2022/09/11 03:14:00;;;;;;;;;;;;;;;16.31;93.76;99987.25;5054408;28;19909;-86
2022/09/11 03:16:25;;;;;;;;;;;;;;;16.31;93.52;99987.25;5054554;28;19916;-85
2022/09/11 03:18:50;;;;;;;;;;;;;;;16.28;93.87;99990.59;5054190;28;19932;-86
2022/09/11 03:21:15;;;;;;;;;;;;;;;16.43;92.78;99995.84;5070394;28;20377;-86
2022/09/11 03:23:41;;;;;;;;;;;;;;;16.39;93.10;99999.50;5054641;28;20093;-85
2022/09/11 03:26:06;;;;;;;;;;;;;;;16.48;92.91;99996.88;5054696;28;19914;-87
2022/09/11 03:28:32;;;;;;;;;;;;;;;16.50;92.43;99997.41;5054409;28;19919;-87
2022/09/11 03:30:58;;;;;;;;;;;;;;;16.47;92.43;100000.75;5054643;28;20305;-86
2022/09/11 03:33:23;;;;;;;;;;;;;;;16.50;92.62;100005.66;5054124;28;19952;-87
2022/09/11 03:35:48;;;;;;;;;;;;;;;16.31;93.29;100009.25;5054660;28;19909;-87
2022/09/11 03:38:14;;;;;;;;;;;;;;;16.35;93.19;100004.81;5054399;28;20403;-86
2022/09/11 03:40:41;;;;;;;;;;;;;;;16.37;92.83;100007.25;5054632;28;19943;-86
2022/09/11 03:43:06;;;;;;;;;;;;;;;16.28;93.13;100010.66;5034975;28;19943;-84
2022/09/11 03:45:31;;;;;;;;;;;;;;;16.14;94.31;100010.59;5033935;28;19913;-86
2022/09/11 03:47:56;;;;;;;;;;;;;;;16.22;93.97;100017.34;5041947;28;20003;-86
2022/09/11 03:50:21;;;;;;;;;;;;;;;16.25;93.93;100015.94;5036398;28;19917;-85
2022/09/11 03:52:47;;;;;;;;;;;;;;;16.34;93.50;100014.97;5034013;28;19917;-86
2022/09/11 03:55:12;;;;;;;;;;;;;;;16.33;93.37;100015.28;5032775;28;19909;-86
2022/09/11 03:57:38;;;;;;;;;;;;;;;16.42;92.92;100012.66;5031594;28;19913;-85
2022/09/11 04:00:04;;;;;;;;;;;;;;;16.42;92.80;100021.75;5045322;28;19925;-86
2022/09/11 04:02:30;;;;;;;;;;;;;;;16.47;92.53;100017.28;5051204;28;19908;-85
2022/09/11 04:04:55;;;;;;;;;;;;;;;16.41;92.85;100024.78;5050746;28;19908;-86
2022/09/11 04:07:21;;;;;;;;;;;;;;;16.36;93.14;100030.34;5052033;28;20346;-87
2022/09/11 04:09:46;;;;;;;;;;;;;;;16.08;94.80;100028.28;5052842;28;19917;-84
2022/09/11 04:12:11;;;;;;;;;;;;;;;16.05;94.66;100037.13;5052085;28;19939;-86
2022/09/11 04:14:37;;;;;;;;;;;;;;;16.10;94.68;100031.53;5053426;28;19913;-87
2022/09/11 04:17:02;;;;;;;;;;;;;;;15.95;95.97;100038.00;5053400;28;19999;-86
2022/09/11 04:19:28;;;;;;;;;;;;;;;16.05;95.53;100037.13;5051905;28;19920;-86
2022/09/11 04:21:53;;;;;;;;;;;;;;;16.14;94.98;100042.75;5052573;28;19913;-87
2022/09/11 04:24:18;;;;;;;;;;;;;;;16.20;94.14;100042.41;5051126;28;19916;-85
2022/09/11 04:26:44;;;;;;;;;;;;;;;16.20;94.15;100044.34;5053067;28;19913;-85
2022/09/11 04:29:09;;;;;;;;;;;;;;;16.29;94.08;100034.28;5053192;28;20350;-86
2022/09/11 04:31:35;;;;;;;;;;;;;;;16.09;94.04;100044.47;5053684;28;19916;-86
2022/09/11 04:34:00;;;;;;;;;;;;;;;15.94;95.57;100045.47;5053439;28;19913;-86
2022/09/11 04:36:25;;;;;;;;;;;;;;;16.05;95.51;100051.66;5053496;28;19908;-87
2022/09/11 04:38:53;;;;;;;;;;;;;;;16.19;94.72;100051.75;5053316;28;20007;-87
2022/09/11 04:41:19;;;;;;;;;;;;;;;16.13;94.50;100047.44;5053763;28;19913;-87
2022/09/11 04:43:44;;;;;;;;;;;;;;;16.17;94.67;100048.50;5053482;28;19915;-87
2022/09/11 04:46:13;;;;;;;;;;;;;;;16.32;93.57;100052.97;5062959;28;19908;-87
2022/09/11 04:48:45;;;;;;;;;;;;;;;16.31;93.53;100048.56;5057545;28;19913;-86
2022/09/11 04:51:19;;;;;;;;;;;;;;;16.32;93.62;100049.41;5051807;28;20265;-85
2022/09/11 04:53:44;;;;;;;;;;;;;;;16.20;93.37;100045.16;5053527;28;19909;-86
2022/09/11 04:56:13;;;;;;;;;;;;;;;15.70;96.49;100046.28;5053608;28;19923;-86
2022/09/11 04:58:38;;;;;;;;;;;;;;;15.86;96.19;100060.66;5053042;28;19966;-87
2022/09/11 05:01:10;;;;;;;;;;;;;;;16.03;95.93;100050.34;5051008;28;20358;-86
2022/09/11 05:03:35;;;;;;;;;;;;;;;16.12;95.46;100056.00;5050394;28;19931;-85
2022/09/11 05:06:07;;;;;;;;;;;;;;;16.29;94.23;100048.03;5052415;28;20341;-87
2022/09/11 05:08:32;;;;;;;;;;;;;;;16.34;93.27;100058.16;5053313;28;19913;-86
2022/09/11 05:10:59;;;;;;;;;;;;;;;16.40;93.42;100050.66;5053263;28;19909;-86
2022/09/11 05:13:24;;;;;;;;;;;;;;;16.36;93.80;100053.19;5053496;28;19962;-86
2022/09/11 05:15:49;;;;;;;;;;;;;;;16.31;93.69;100059.56;5060387;28;19908;-87
2022/09/11 05:18:15;;;;;;;;;;;;;;;16.38;93.63;100067.47;5072925;28;19955;-84
2022/09/11 05:20:40;;;;;;;;;;;;;;;16.20;94.27;100064.41;5056340;28;19947;-87
2022/09/11 05:23:06;;;;;;;;;;;;;;;16.33;93.73;100070.31;5056817;28;19909;-87
2022/09/11 05:25:31;;;;;;;;;;;;;;;16.31;94.21;100069.78;5056701;28;19908;-87
2022/09/11 05:27:56;;;;;;;;;;;;;;;16.18;94.24;100072.13;5056775;28;20743;-85
2022/09/11 05:30:21;;;;;;;;;;;;;;;16.30;93.96;100076.38;5055983;28;19917;-87
2022/09/11 05:32:52;;;;;;;;;;;;;;;16.24;93.37;100080.31;5056302;28;19966;-85
2022/09/11 05:35:17;;;;;;;;;;;;;;;16.28;94.06;100097.88;5056419;28;19912;-88
2022/09/11 05:37:43;;;;;;;;;;;;;;;16.40;93.61;100090.00;5056533;28;19916;-87
2022/09/11 05:40:08;;;;;;;;;;;;;;;16.50;93.12;100083.53;5056366;28;19982;-86
2022/09/11 05:42:33;;;;;;;;;;;;;;;16.56;92.36;100087.03;5056078;28;19909;-86
2022/09/11 05:44:58;;;;;;;;;;;;;;;16.41;93.08;100097.16;5056846;28;19908;-85
2022/09/11 05:47:24;;;;;;;;;;;;;;;16.35;93.88;100095.59;5056784;28;19908;-87
2022/09/11 05:49:49;;;;;;;;;;;;;;;16.47;93.29;100102.56;5055500;28;19912;-86
2022/09/11 05:52:14;;;;;;;;;;;;;;;16.55;92.72;100107.41;5056641;28;19915;-86
2022/09/11 05:54:39;;;;;;;;;;;;;;;16.60;92.29;100115.59;5056379;28;19915;-87
2022/09/11 05:57:05;;;;;;;;;;;;;;;16.55;92.76;100112.91;5056233;28;19913;-86
2022/09/11 05:59:31;;;;;;;;;;;;;;;16.57;92.39;100116.19;5055984;28;19992;-86
2022/09/11 06:01:56;;;;;;;;;;;;;;;16.50;92.53;100121.22;5056483;28;19909;-87
2022/09/11 06:04:22;;;;;;;;;;;;;;;16.41;93.05;100107.34;5056134;28;19917;-86
2022/09/11 06:06:47;;;;;;;;;;;;;;;16.50;92.81;100115.72;5056331;28;20417;-84
2022/09/11 06:09:13;;;;;;;;;;;;;;;16.54;92.40;100122.28;5055962;28;19999;-87
2022/09/11 06:11:38;;;;;;;;;;;;;;;16.08;93.93;100121.78;5056278;28;19908;-86
2022/09/11 06:14:03;;;;;;;;;;;;;;;16.30;93.94;100128.66;5055217;28;20162;-86
2022/09/11 06:16:30;;;;;;;;;;;;;;;16.42;93.36;100126.28;5055089;28;19916;-85
2022/09/11 06:18:56;;;;;;;;;;;;;;;16.45;92.20;100131.19;5054649;28;19978;-85
2022/09/11 06:21:22;;;;;;;;;;;;;;;16.52;91.73;100141.00;5044152;28;20413;-86
2022/09/11 06:23:48;;;;;;;;;;;;;;;16.55;92.04;100130.25;5043229;28;19955;-87
2022/09/11 06:26:14;;;;;;;;;;;;;;;16.42;92.52;100137.28;5044400;28;20370;-86
2022/09/11 06:28:39;;;;;;;;;;;;;;;16.64;91.46;100133.16;5041125;28;19984;-86
2022/09/11 06:31:06;;;;;;;;;;;;;;;16.63;91.32;100137.03;5054698;28;19917;-85
2022/09/11 06:33:33;;;;;;;;;;;;;;;16.27;92.67;100151.25;5055267;28;19913;-86
2022/09/11 06:35:59;;;;;;;;;;;;;;;16.36;92.27;100140.41;5055532;28;19948;-87
2022/09/11 06:38:24;;;;;;;;;;;;;;;16.50;91.92;100138.56;5054737;28;19908;-86
2022/09/11 06:40:50;;;;;;;;;;;;;;;16.26;91.73;100144.09;5055059;28;19931;-86
2022/09/11 06:43:15;;;;;;;;;;;;;;;16.48;92.32;100145.47;5054274;28;20378;-86
2022/09/11 06:45:40;;;;;;;;;;;;;;;16.53;91.68;100146.25;5054971;28;19962;-87
2022/09/11 06:48:06;;;;;;;;;;;;;;;16.51;92.56;100150.41;5063710;28;19909;-87
2022/09/11 06:50:39;;;;;;;;;;;;;;;16.48;91.97;100153.72;5055693;28;19952;-87
2022/09/11 06:53:05;;;;;;;;;;;;;;;16.33;93.14;100161.88;5054913;28;19909;-86
2022/09/11 06:55:30;;;;;;;;;;;;;;;16.40;93.65;100161.53;5054992;28;19912;-86
2022/09/11 06:57:55;;;;;;;;;;;;;;;16.37;94.04;100155.81;5054631;28;19935;-85
2022/09/11 07:00:21;;;;;;;;;;;;;;;16.34;93.84;100165.47;5052533;28;19916;-85
2022/09/11 07:02:46;;;;;;;;;;;;;;;16.59;93.28;100163.50;5054014;28;19909;-86
2022/09/11 07:05:12;;;;;;;;;;;;;;;16.62;93.34;100165.66;5054363;28;19917;-87
2022/09/11 07:07:38;;;;;;;;;;;;;;;16.61;92.45;100165.94;5054683;28;20416;-87
2022/09/11 07:10:04;;;;;;;;;;;;;;;16.75;92.72;100160.53;5054045;28;20376;-87
2022/09/11 07:12:30;;;;;;;;;;;;;;;16.84;90.73;100161.50;5052646;28;19911;-86
2022/09/11 07:14:56;;;;;;;;;;;;;;;16.50;91.35;100154.25;5069153;28;20301;-86
2022/09/11 07:17:21;;;;;;;;;;;;;;;16.50;91.91;100162.50;5054399;28;20001;-84
2022/09/11 07:19:46;;;;;;;;;;;;;;;16.17;94.12;100164.00;5045499;28;19909;-85
2022/09/11 07:22:13;;;;;;;;;;;;;;;16.05;94.87;100161.66;5050420;28;19913;-86
2022/09/11 07:24:38;;;;;;;;;;;;;;;16.10;95.22;100158.03;5054540;28;19970;-87
2022/09/11 07:27:03;;;;;;;;;;;;;;;16.40;94.29;100160.72;5041489;28;20355;-87
2022/09/11 07:29:30;;;;;;;;;;;;;;;16.66;92.35;100163.13;5049853;28;19920;-86
2022/09/11 07:31:57;;;;;;;;;;;;;;;16.78;91.80;100170.97;5054477;28;20361;-86
2022/09/11 07:34:22;;;;;;;;;;;;;;;16.65;92.16;100173.34;5036498;28;20316;-86
2022/09/11 07:36:50;;;;;;;;;;;;;;;16.48;92.38;100178.50;5034082;28;19992;-87
2022/09/11 07:39:15;;;;;;;;;;;;;;;16.39;93.42;100172.84;5042440;28;19947;-86
2022/09/11 07:41:40;;;;;;;;;;;;;;;16.66;92.48;100166.69;5052991;28;19940;-86
2022/09/11 07:44:06;;;;;;;;;;;;;;;16.91;91.70;100169.38;5054396;28;19908;-86
2022/09/11 07:46:31;;;;;;;;;;;;;;;16.91;91.33;100167.47;5054383;28;20003;-86
2022/09/11 07:48:57;;;;;;;;;;;;;;;16.96;89.58;100179.50;5053392;28;20347;-85
2022/09/11 07:51:23;;;;;;;;;;;;;;;16.81;91.05;100173.09;5053766;28;19916;-84
2022/09/11 07:53:49;;;;;;;;;;;;;;;16.82;92.03;100182.19;5054161;28;19955;-85
2022/09/11 07:56:16;;;;;;;;;;;;;;;16.78;91.86;100188.28;5053585;28;20265;-85
2022/09/11 07:58:42;;;;;;;;;;;;;;;17.08;90.53;100190.91;5051957;28;19920;-85
2022/09/11 08:01:08;;;;;;;;;;;;;;;17.12;90.67;100185.63;5053213;28;20412;-86
2022/09/11 08:03:34;;;;;;;;;;;;;;;17.10;90.67;100185.91;5053821;28;20277;-83
2022/09/11 08:06:00;;;;;;;;;;;;;;;17.09;89.33;100192.53;5054062;28;19909;-86
2022/09/11 08:08:28;;;;;;;;;;;;;;;17.10;89.55;100194.19;5054297;28;19909;-86
2022/09/11 08:10:54;;;;;;;;;;;;;;;17.32;89.21;100195.53;5053226;28;19909;-86
2022/09/11 08:13:19;;;;;;;;;;;;;;;17.26;90.10;100199.47;5051350;28;19915;-86
2022/09/11 08:15:45;;;;;;;;;;;;;;;17.22;90.95;100201.19;5053945;28;19909;-87
2022/09/11 08:18:10;;;;;;;;;;;;;;;17.32;89.97;100195.53;5044421;28;19932;-85
2022/09/11 08:20:35;;;;;;;;;;;;;;;17.34;89.97;100201.56;5051392;28;19925;-85
2022/09/11 08:23:00;;;;;;;;;;;;;;;17.02;90.69;100208.63;5042647;28;19913;-85
2022/09/11 08:25:27;;;;;;;;;;;;;;;17.32;89.48;100206.53;5051163;28;20356;-85
2022/09/11 08:27:52;;;;;;;;;;;;;;;17.30;89.86;100202.44;5053110;28;19992;-85
2022/09/11 08:30:17;;;;;;;;;;;;;;;17.24;90.24;100210.81;5044686;28;19999;-86
2022/09/11 08:32:43;;;;;;;;;;;;;;;17.34;90.19;100207.06;5052539;28;19919;-85
2022/09/11 08:35:08;;;;;;;;;;;;;;;17.55;90.27;100209.50;5052884;28;19935;-85
2022/09/11 08:37:33;;;;;;;;;;;;;;;17.60;87.86;100214.09;5053384;28;19960;-85
2022/09/11 08:39:59;;;;;;;;;;;;;;;17.84;87.12;100216.69;5053306;28;20372;-85
2022/09/11 08:42:26;;;;;;;;;;;;;;;17.44;88.54;100219.03;5058441;28;19908;-85
2022/09/11 08:44:54;;;;;;;;;;;;;;;17.53;89.08;100222.75;5053321;28;19912;-85
2022/09/11 08:47:23;;;;;;;;;;;;;;;17.41;90.85;100230.66;5053503;28;19947;-85
2022/09/11 08:49:51;;;;;;;;;;;;;;;17.60;90.10;100234.19;5053104;28;19995;-85
2022/09/11 08:52:17;;;;;;;;;;;;;;;17.71;88.99;100228.53;5053766;28;19920;-85
2022/09/11 08:54:44;;;;;;;;;;;;;;;17.47;89.66;100246.00;5056738;28;20004;-84
2022/09/11 08:57:28;;;;;;;;;;;;;;;17.42;89.98;100240.56;5057242;28;19975;-84
2022/09/11 08:59:58;;;;;;;;;;;;;;;16.96;92.24;100251.94;5056536;28;19944;-85
2022/09/11 09:02:26;;;;;;;;;;;;;;;17.24;90.97;100254.06;5057202;28;20261;-85
2022/09/11 09:04:58;;;;;;;;;;;;;;;17.28;91.07;100255.09;5056424;28;19919;-84
2022/09/11 09:07:32;;;;;;;;;;;;;;;16.99;91.76;100258.78;5056662;28;19912;-84
2022/09/11 09:09:57;;;;;;;;;;;;;;;17.37;90.39;100252.50;5056520;28;19931;-84
2022/09/11 09:12:22;;;;;;;;;;;;;;;17.48;89.59;100255.91;5056908;28;19913;-84
2022/09/11 09:15:15;;;;;;;;;;;;;;;17.71;88.59;100256.91;5057170;28;19962;-84
2022/09/11 09:17:46;;;;;;;;;;;;;;;17.96;87.36;100256.75;5060769;28;19908;-85
2022/09/11 09:20:15;;;;;;;;;;;;;;;17.97;87.98;100262.00;5059834;28;19917;-86
2022/09/11 09:22:56;;;;;;;;;;;;;;;17.93;85.69;100257.38;5056749;28;19913;-86
2022/09/11 09:25:22;;;;;;;;;;;;;;;18.00;86.42;100257.78;5039093;28;19920;-85
2022/09/11 09:28:00;;;;;;;;;;;;;;;18.19;84.21;100256.94;5036015;28;19917;-85
2022/09/11 09:30:28;;;;;;;;;;;;;;;18.37;84.68;100259.91;5054574;28;19916;-85
2022/09/11 09:33:00;;;;;;;;;;;;;;;18.47;84.36;100259.72;5054787;28;19948;-84
2022/09/11 09:35:38;;;;;;;;;;;;;;;18.19;82.11;100265.22;5056418;28;19939;-85
2022/09/11 09:38:13;;;;;;;;;;;;;;;18.30;83.78;100265.84;5056495;28;19908;-86
2022/09/11 09:40:58;;;;;;;;;;;;;;;18.15;85.65;100267.75;5052226;28;19961;-85
2022/09/11 09:43:48;;;;;;;;;;;;;;;17.43;86.89;100272.53;5036862;28;19913;-85
2022/09/11 09:46:19;;;;;;;;;;;;;;;17.78;86.46;100261.19;5036848;28;20264;-85
2022/09/11 09:48:45;;;;;;;;;;;;;;;17.89;85.39;100265.44;5039327;28;20003;-83
2022/09/11 09:51:13;;;;;;;;;;;;;;;18.15;84.98;100269.66;5054702;28;19909;-83
2022/09/11 09:53:41;;;;;;;;;;;;;;;18.38;82.73;100267.91;5055891;28;20000;-85
2022/09/11 09:56:09;;;;;;;;;;;;;;;18.49;81.08;100268.50;5056070;28;19909;-85
2022/09/11 09:58:40;;;;;;;;;;;;;;;18.41;82.13;100269.22;5055858;28;19959;-85
2022/09/11 10:01:24;;;;;;;;;;;;;;;18.54;82.70;100268.41;5054450;28;19931;-85
2022/09/11 10:04:09;;;;;;;;;;;;;;;18.34;81.93;100266.06;5052852;28;19963;-86
2022/09/11 10:06:35;;;;;;;;;;;;;;;18.51;81.82;100263.50;5055755;28;20345;-85
2022/09/11 10:09:00;;;;;;;;;;;;;;;18.40;82.28;100264.84;5055862;28;19912;-85
2022/09/11 10:11:29;;;;;;;;;;;;;;;18.00;83.33;100263.31;5056005;28;19994;-85
2022/09/11 10:13:54;;;;;;;;;;;;;;;18.17;81.41;100262.75;5055807;28;19950;-85
2022/09/11 10:16:21;;;;;;;;;;;;;;;18.19;84.73;100255.00;5054968;28;19909;-85
2022/09/11 10:18:46;;;;;;;;;;;;;;;18.16;83.89;100254.78;5055309;28;19913;-85
2022/09/11 10:21:11;;;;;;;;;;;;;;;18.12;84.46;100250.97;5055907;28;19935;-85
2022/09/11 10:24:03;;;;;;;;;;;;;;;18.47;83.19;100248.66;5056110;28;19948;-85
2022/09/11 10:26:42;;;;;;;;;;;;;;;18.39;82.55;100257.66;5040045;28;19931;-85
2022/09/11 10:29:13;;;;;;;;;;;;;;;18.58;82.12;100259.50;5055446;28;19913;-85
2022/09/11 10:31:39;;;;;;;;;;;;;;;18.69;81.07;100255.44;5055682;28;20516;-85
2022/09/11 10:34:06;;;;;;;;;;;;;;;18.51;82.15;100260.72;5054844;28;19919;-85
2022/09/11 10:36:31;;;;;;;;;;;;;;;18.71;80.79;100263.41;5071181;28;19908;-85
2022/09/11 10:38:59;;;;;;;;;;;;;;;18.53;81.03;100263.22;5055152;28;20358;-85
2022/09/11 10:41:26;;;;;;;;;;;;;;;18.83;79.73;100260.13;5055382;28;19912;-86
2022/09/11 10:44:00;;;;;;;;;;;;;;;18.95;79.72;100263.16;5055157;28;19909;-85
2022/09/11 10:46:33;;;;;;;;;;;;;;;18.98;77.19;100256.19;5055373;28;20007;-85
2022/09/11 10:49:01;;;;;;;;;;;;;;;18.94;77.88;100256.00;5055201;28;19912;-85
2022/09/11 10:51:28;;;;;;;;;;;;;;;19.13;77.96;100263.31;5054985;28;20353;-85
2022/09/11 10:53:57;;;;;;;;;;;;;;;19.37;76.71;100262.25;5055200;28;20353;-85
2022/09/11 10:56:23;;;;;;;;;;;;;;;19.40;74.71;100253.34;5055319;28;20465;-86
2022/09/11 10:58:51;;;;;;;;;;;;;;;18.77;78.22;100265.72;5054884;28;19919;-85
2022/09/11 11:01:16;;;;;;;;;;;;;;;18.46;80.28;100255.31;5053858;28;19940;-85
2022/09/11 11:03:42;;;;;;;;;;;;;;;18.53;81.65;100258.47;5053455;28;19951;-85
2022/09/11 11:06:13;;;;;;;;;;;;;;;19.08;79.98;100255.16;5054984;28;20002;-86
2022/09/11 11:08:45;;;;;;;;;;;;;;;19.27;79.35;100257.78;5054730;28;19923;-86
2022/09/11 11:11:31;;;;;;;;;;;;;;;19.14;78.31;100259.44;5056080;28;20015;-85
2022/09/11 11:14:15;;;;;;;;;;;;;;;19.49;77.91;100267.22;5053679;28;19909;-85
2022/09/11 11:16:56;;;;;;;;;;;;;;;19.57;77.91;100260.13;5051585;28;19909;-85
2022/09/11 11:19:30;;;;;;;;;;;;;;;19.53;76.51;100264.66;5053364;28;19913;-85
2022/09/11 11:22:25;;;;;;;;;;;;;;;19.22;78.17;100263.44;5053861;28;19909;-83
2022/09/11 11:24:50;;;;;;;;;;;;;;;19.30;75.89;100261.88;5048961;28;19916;-85
2022/09/11 11:27:30;;;;;;;;;;;;;;;19.39;76.80;100261.94;5054151;28;19916;-85
2022/09/11 11:29:56;;;;;;;;;;;;;;;19.26;78.45;100270.00;5054287;28;19927;-86
2022/09/11 11:32:21;;;;;;;;;;;;;;;19.39;78.00;100264.69;5054526;28;19913;-86
2022/09/11 11:35:00;;;;;;;;;;;;;;;19.21;78.07;100265.38;5053755;28;19912;-85
2022/09/11 11:37:32;;;;;;;;;;;;;;;19.27;77.71;100268.03;5054821;28;19909;-85
2022/09/11 11:40:05;;;;;;;;;;;;;;;18.89;78.60;100276.28;5040306;28;19913;-86
2022/09/11 11:42:36;;;;;;;;;;;;;;;19.00;78.74;100268.56;5048949;28;19913;-86
2022/09/11 11:45:04;;;;;;;;;;;;;;;19.35;77.52;100270.03;5054701;28;19920;-86
2022/09/11 11:47:31;;;;;;;;;;;;;;;19.54;75.47;100274.59;5054668;28;19912;-86
2022/09/11 11:50:12;;;;;;;;;;;;;;;19.55;74.70;100273.44;5053847;28;19912;-86
2022/09/11 11:52:42;;;;;;;;;;;;;;;19.53;76.02;100272.94;5054366;28;19908;-85
2022/09/11 11:55:15;;;;;;;;;;;;;;;19.32;75.75;100274.25;5054413;28;20360;-86
2022/09/11 11:57:44;;;;;;;;;;;;;;;19.45;75.54;100275.34;5054416;28;19913;-86
2022/09/11 12:00:14;;;;;;;;;;;;;;;19.58;75.05;100279.19;5054206;28;19913;-85
2022/09/11 12:02:52;;;;;;;;;;;;;;;19.68;74.88;100277.28;5054593;28;19999;-85
2022/09/11 12:05:23;;;;;;;;;;;;;;;19.65;73.55;100284.25;5054324;28;19908;-84
2022/09/11 12:07:49;;;;;;;;;;;;;;;19.80;73.89;100282.25;5054285;28;19909;-86
2022/09/11 12:10:29;;;;;;;;;;;;;;;19.52;75.07;100277.69;5053752;28;19962;-85
2022/09/11 12:12:59;;;;;;;;;;;;;;;19.62;74.08;100286.84;5054239;28;19936;-85
2022/09/11 12:15:29;;;;;;;;;;;;;;;19.55;74.63;100290.03;5057383;28;19931;-85
2022/09/11 12:18:02;;;;;;;;;;;;;;;19.91;73.42;100280.84;5066494;28;19999;-85
2022/09/11 12:20:39;;;;;;;;;;;;;;;19.92;72.90;100276.97;5051948;28;19916;-86
2022/09/11 12:23:05;;;;;;;;;;;;;;;19.67;74.00;100276.47;5054151;28;20261;-85
2022/09/11 12:25:36;;;;;;;;;;;;;;;19.50;73.29;100279.13;5069794;28;19908;-86
2022/09/11 12:28:09;;;;;;;;;;;;;;;19.48;75.06;100290.50;5046873;28;20142;-83
2022/09/11 12:30:54;;;;;;;;;;;;;;;19.76;73.70;100286.78;5043622;28;19996;-85
2022/09/11 12:33:38;;;;;;;;;;;;;;;19.97;72.36;100280.75;5037688;28;19920;-84
2022/09/11 12:36:06;;;;;;;;;;;;;;;19.87;72.27;100285.38;5036789;28;19915;-86
2022/09/11 12:38:37;;;;;;;;;;;;;;;19.69;73.73;100289.97;5038851;28;19929;-86
2022/09/11 12:41:06;;;;;;;;;;;;;;;19.48;74.60;100285.78;5054480;28;20558;-85
2022/09/11 12:43:34;;;;;;;;;;;;;;;19.59;72.46;100289.09;5037967;28;19909;-85
2022/09/11 12:46:04;;;;;;;;;;;;;;;19.76;72.69;100284.00;5046008;28;20011;-86
2022/09/11 12:48:42;;;;;;;;;;;;;;;19.71;73.93;100277.47;5057296;28;19909;-85